createdAt,value
2023-03-06T00:01:28.331Z,9.48
2023-03-06T00:04:08.928Z,7.43
2023-03-06T00:06:37.580Z,8.82
2023-03-06T00:09:09.173Z,9.25
2023-03-06T00:11:41.859Z,9.65
2023-03-06T00:14:11.362Z,10.13
2023-03-06T00:16:41.345Z,9.82
2023-03-06T00:19:12.346Z,9.63
2023-03-06T00:21:45.714Z,9.25
2023-03-06T00:24:15.293Z,8.98
2023-03-06T00:26:44.110Z,8.45
2023-03-06T00:29:13.471Z,8.07
2023-03-06T00:31:47.843Z,8.95
2023-03-06T00:34:16.672Z,8.63
2023-03-06T00:36:44.963Z,8.82
2023-03-06T00:39:14.180Z,8.60
2023-03-06T00:41:47.131Z,8.55
2023-03-06T00:44:15.999Z,8.63
2023-03-06T00:46:46.257Z,8.88
2023-03-06T00:49:16.141Z,8.93
2023-03-06T00:51:44.897Z,8.27
2023-03-06T00:54:16.085Z,9.10
2023-03-06T00:56:45.852Z,9.45
2023-03-06T00:59:14.721Z,10.05
2023-03-06T01:01:45.330Z,10.48
2023-03-06T01:04:17.981Z,10.88
2023-03-06T01:06:46.232Z,11.65
2023-03-06T01:09:17.586Z,11.38
2023-03-06T01:11:50.057Z,11.52
2023-03-06T01:14:19.404Z,12.13
2023-03-06T01:16:51.950Z,12.48
2023-03-06T01:19:20.803Z,13.25
2023-03-06T01:21:54.255Z,12.82
2023-03-06T01:24:23.942Z,13.93
2023-03-06T01:26:56.803Z,14.57
2023-03-06T01:29:27.965Z,15.27
2023-03-06T01:31:57.473Z,13.93
2023-03-06T01:34:26.783Z,14.13
2023-03-06T01:36:55.958Z,14.65
2023-03-06T01:39:25.204Z,15.32
2023-03-06T01:41:54.069Z,14.98
2023-03-06T01:44:27.029Z,15.63
2023-03-06T01:46:56.843Z,15.00
2023-03-06T01:49:26.795Z,15.55
2023-03-06T01:52:06.798Z,16.55
2023-03-06T01:54:37.001Z,15.73
2023-03-06T01:57:07.992Z,16.88
2023-03-06T01:59:37.733Z,16.08
2023-03-06T02:02:07.707Z,16.80
2023-03-06T02:04:42.379Z,15.98
2023-03-06T02:07:12.674Z,16.67
2023-03-06T02:09:42.060Z,16.58
2023-03-06T02:12:12.026Z,16.52
2023-03-06T02:14:40.987Z,15.90
2023-03-06T02:17:13.270Z,16.17
2023-03-06T02:20:07.893Z,17.10
2023-03-06T02:23:01.011Z,15.73
2023-03-06T02:25:29.814Z,16.85
2023-03-06T02:27:58.562Z,16.83
2023-03-06T02:30:29.735Z,16.17
2023-03-06T02:33:16.760Z,16.25
2023-03-06T02:35:55.122Z,17.27
2023-03-06T02:38:25.947Z,15.95
2023-03-06T02:40:54.976Z,15.20
2023-03-06T02:43:25.484Z,15.02
2023-03-06T02:46:00.188Z,17.00
2023-03-06T02:48:29.169Z,17.10
2023-03-06T02:50:59.837Z,17.88
2023-03-06T02:53:28.092Z,17.58
2023-03-06T02:55:58.570Z,16.60
2023-03-06T02:58:30.319Z,16.95
2023-03-06T03:01:01.069Z,17.35
2023-03-06T03:03:41.683Z,17.70
2023-03-06T03:06:13.542Z,18.75
2023-03-06T03:08:43.138Z,17.52
2023-03-06T03:11:13.167Z,17.25
2023-03-06T03:13:44.809Z,18.48
2023-03-06T03:16:20.173Z,18.52
2023-03-06T03:18:50.306Z,19.83
2023-03-06T03:21:21.351Z,17.35
2023-03-06T03:23:50.515Z,16.80
2023-03-06T03:26:21.355Z,17.80
2023-03-06T03:29:10.753Z,18.08
2023-03-06T03:31:41.791Z,18.80
2023-03-06T03:34:15.443Z,18.25
2023-03-06T03:36:45.954Z,17.33
2023-03-06T03:39:17.394Z,18.15
2023-03-06T03:44:23.060Z,14.50
2023-03-06T03:46:54.937Z,16.35
2023-03-06T03:49:30.779Z,16.23
2023-03-06T03:52:01.382Z,15.98
2023-03-06T03:54:34.205Z,15.70
2023-03-06T03:57:02.967Z,16.23
2023-03-06T03:59:37.336Z,15.35
2023-03-06T04:02:22.627Z,15.85
2023-03-06T04:05:05.062Z,17.02
2023-03-06T04:07:38.473Z,16.50
2023-03-06T04:10:08.330Z,16.77
2023-03-06T04:12:42.926Z,14.93
2023-03-06T04:15:13.332Z,16.93
2023-03-06T04:17:44.903Z,15.65
2023-03-06T04:20:17.949Z,18.02
2023-03-06T04:22:55.983Z,18.80
2023-03-06T04:25:25.789Z,18.05
2023-03-06T04:27:56.359Z,17.17
2023-03-06T04:30:26.288Z,16.65
2023-03-06T04:33:10.486Z,18.52
2023-03-06T04:35:41.968Z,17.27
2023-03-06T04:38:15.935Z,16.13
2023-03-06T04:40:47.234Z,16.15
2023-03-06T04:43:16.466Z,16.70
2023-03-06T04:45:46.920Z,16.50
2023-03-06T04:48:17.772Z,15.50
2023-03-06T04:50:47.319Z,17.38
2023-03-06T04:53:16.989Z,17.40
2023-03-06T04:55:45.147Z,16.20
2023-03-06T04:58:14.949Z,16.27
2023-03-06T05:00:43.619Z,16.20
2023-03-06T05:03:23.624Z,16.25
2023-03-06T05:05:54.457Z,16.13
2023-03-06T05:08:25.470Z,15.30
2023-03-06T05:10:59.310Z,16.08
2023-03-06T05:13:30.434Z,17.35
2023-03-06T05:16:06.051Z,16.23
2023-03-06T05:18:38.761Z,15.65
2023-03-06T05:21:09.440Z,15.90
2023-03-06T05:23:45.828Z,16.95
2023-03-06T05:26:16.605Z,16.60
2023-03-06T05:28:48.314Z,16.38
2023-03-06T05:31:16.813Z,14.63
2023-03-06T05:33:45.885Z,16.90
2023-03-06T05:36:14.458Z,15.85
2023-03-06T05:38:43.274Z,15.48
2023-03-06T05:41:12.998Z,16.42
2023-03-06T05:43:43.875Z,15.57
2023-03-06T05:46:13.718Z,16.65
2023-03-06T05:48:43.309Z,17.50
2023-03-06T05:51:12.349Z,15.73
2023-03-06T05:53:41.218Z,16.95
2023-03-06T05:56:09.914Z,16.35
2023-03-06T05:58:38.957Z,15.38
2023-03-06T06:01:11.458Z,16.67
2023-03-06T06:03:44.919Z,16.35
2023-03-06T06:06:16.281Z,16.38
2023-03-06T06:08:46.405Z,14.40
2023-03-06T06:11:14.883Z,15.00
2023-03-06T06:13:43.966Z,15.18
2023-03-06T06:16:15.764Z,16.00
2023-03-06T06:18:44.270Z,15.00
2023-03-06T06:21:14.411Z,14.77
2023-03-06T06:23:46.975Z,13.25
2023-03-06T06:26:15.981Z,13.80
2023-03-06T06:28:44.487Z,13.52
2023-03-06T06:31:13.364Z,14.80
2023-03-06T06:33:44.000Z,14.77
2023-03-06T06:36:19.842Z,15.10
2023-03-06T06:38:53.223Z,15.45
2023-03-06T06:44:14.437Z,15.60
2023-03-06T06:49:35.270Z,15.23
2023-03-06T06:52:04.080Z,14.63
2023-03-06T06:54:35.449Z,14.95
2023-03-06T06:57:04.185Z,14.38
2023-03-06T06:59:34.314Z,15.85
2023-03-06T07:02:05.963Z,16.05
2023-03-06T07:04:34.647Z,17.10
2023-03-06T07:07:03.545Z,16.42
2023-03-06T07:09:33.181Z,16.35
2023-03-06T07:12:01.642Z,17.90
2023-03-06T07:14:30.677Z,18.42
2023-03-06T07:16:59.779Z,17.92
2023-03-06T07:19:31.110Z,17.67
2023-03-06T07:22:01.604Z,17.73
2023-03-06T07:24:37.593Z,17.13
2023-03-06T07:27:06.263Z,16.85
2023-03-06T07:29:38.417Z,16.52
2023-03-06T07:32:06.986Z,16.85
2023-03-06T07:34:38.575Z,17.67
2023-03-06T07:37:07.124Z,17.73
2023-03-06T07:39:40.579Z,17.08
2023-03-06T07:42:13.641Z,18.38
2023-03-06T07:44:49.965Z,15.82
2023-03-06T07:47:22.658Z,16.20
2023-03-06T07:50:00.373Z,16.60
2023-03-06T07:52:32.726Z,13.98
2023-03-06T07:55:01.519Z,14.90
2023-03-06T07:57:39.144Z,15.80
2023-03-06T08:00:11.389Z,15.90
2023-03-06T08:03:02.217Z,15.23
2023-03-06T08:05:34.135Z,14.07
2023-03-06T08:08:05.869Z,16.35
2023-03-06T08:10:37.595Z,16.58
2023-03-06T08:13:05.899Z,15.77
2023-03-06T08:15:36.798Z,15.18
2023-03-06T08:18:06.296Z,11.98
2023-03-06T08:20:37.038Z,16.67
2023-03-06T08:23:07.654Z,15.73
2023-03-06T08:25:37.969Z,15.65
2023-03-06T08:28:08.448Z,16.23
2023-03-06T08:30:38.319Z,15.57
2023-03-06T08:33:18.882Z,16.73
2023-03-06T08:35:50.095Z,17.08
2023-03-06T08:38:21.371Z,19.92
2023-03-06T08:40:50.782Z,21.10
2023-03-06T08:43:22.683Z,20.83
2023-03-06T08:45:55.056Z,18.92
2023-03-06T08:48:24.295Z,18.67
2023-03-06T08:50:54.368Z,19.75
2023-03-06T08:53:40.356Z,18.38
2023-03-06T08:56:21.864Z,19.95
2023-03-06T08:58:50.537Z,21.55
2023-03-06T09:01:23.665Z,21.60
2023-03-06T09:03:57.653Z,20.95
2023-03-06T09:08:58.778Z,21.85
2023-03-06T09:11:27.683Z,23.52
2023-03-06T09:13:59.670Z,24.92
2023-03-06T09:16:29.098Z,24.88
2023-03-06T09:19:03.874Z,23.75
2023-03-06T09:21:33.062Z,24.10
2023-03-06T09:24:01.394Z,24.42
2023-03-06T09:26:45.026Z,22.77
2023-03-06T09:29:16.419Z,19.20
2023-03-06T09:31:45.296Z,19.42
2023-03-06T09:34:14.358Z,20.27
2023-03-06T09:36:56.104Z,18.08
2023-03-06T09:39:27.242Z,20.42
2023-03-06T09:41:59.330Z,19.55
2023-03-06T09:44:29.574Z,20.17
2023-03-06T09:46:57.698Z,21.92
2023-03-06T09:49:34.912Z,22.92
2023-03-06T09:52:18.282Z,21.70
2023-03-06T09:54:53.136Z,26.05
2023-03-06T09:57:27.144Z,24.63
2023-03-06T10:00:02.021Z,23.20
2023-03-06T10:03:01.959Z,23.52
2023-03-06T10:05:42.082Z,24.05
2023-03-06T10:08:20.534Z,21.15
2023-03-06T10:11:02.112Z,22.17
2023-03-06T10:13:31.466Z,21.05
2023-03-06T10:16:04.530Z,22.63
2023-03-06T10:18:38.473Z,20.48
2023-03-06T10:24:06.413Z,20.40
2023-03-06T10:26:40.987Z,20.67
2023-03-06T10:31:37.557Z,16.80
2023-03-06T10:34:22.129Z,19.17
2023-03-06T10:36:50.986Z,19.67
2023-03-06T10:39:22.615Z,17.40
2023-03-06T10:41:51.715Z,18.52
2023-03-06T10:44:22.110Z,17.17
2023-03-06T10:46:56.186Z,17.50
2023-03-06T10:49:32.820Z,18.00
2023-03-06T10:52:07.535Z,16.58
2023-03-06T10:54:40.308Z,14.73
2023-03-06T10:57:25.704Z,13.98
2023-03-06T11:00:01.154Z,13.10
2023-03-06T11:02:45.971Z,12.75
2023-03-06T11:05:21.634Z,13.02
2023-03-06T11:07:59.209Z,13.25
2023-03-06T11:10:29.221Z,13.93
2023-03-06T11:13:07.613Z,16.25
2023-03-06T11:15:39.403Z,10.75
2023-03-06T11:18:10.459Z,12.32
2023-03-06T11:20:50.877Z,13.00
2023-03-06T11:23:23.166Z,12.40
2023-03-06T11:26:01.223Z,11.35
2023-03-06T11:28:31.435Z,10.82
2023-03-06T11:31:07.091Z,12.10
2023-03-06T11:33:56.397Z,10.25
2023-03-06T11:36:31.572Z,11.65
2023-03-06T11:39:04.540Z,11.23
2023-03-06T11:41:38.798Z,10.40
2023-03-06T11:44:16.453Z,12.00
2023-03-06T11:46:48.701Z,10.55
2023-03-06T11:49:17.035Z,10.43
2023-03-06T11:51:50.934Z,9.50
2023-03-06T11:54:19.724Z,10.70
2023-03-06T11:56:51.172Z,11.43
2023-03-06T11:59:24.303Z,12.85
2023-03-06T12:01:59.293Z,12.65
2023-03-06T12:04:46.035Z,12.13
2023-03-06T12:07:14.318Z,12.38
2023-03-06T12:09:47.500Z,12.60
2023-03-06T12:12:21.537Z,8.68
2023-03-06T12:14:55.656Z,10.20
2023-03-06T12:17:29.733Z,10.00
2023-03-06T12:20:12.878Z,9.93
2023-03-06T12:23:02.454Z,12.23
2023-03-06T12:25:45.054Z,9.05
2023-03-06T12:28:23.157Z,10.27
2023-03-06T12:30:57.025Z,10.73
2023-03-06T12:33:27.899Z,10.07
2023-03-06T12:35:55.993Z,11.18
2023-03-06T12:38:33.162Z,10.60
2023-03-06T12:41:19.782Z,10.05
2023-03-06T12:43:51.924Z,8.57
2023-03-06T12:46:19.937Z,7.05
2023-03-06T12:49:26.300Z,4.72
2023-03-06T12:52:00.496Z,4.20
2023-03-06T12:54:31.139Z,3.55
2023-03-06T12:57:03.512Z,3.30
2023-03-06T12:59:48.555Z,3.75
2023-03-06T13:02:35.638Z,3.97
2023-03-06T13:05:22.246Z,4.03
2023-03-06T13:08:11.094Z,3.53
2023-03-06T13:10:40.716Z,3.13
2023-03-06T13:13:29.003Z,2.72
2023-03-06T13:16:03.115Z,2.10
2023-03-06T13:18:34.445Z,2.88
2023-03-06T13:21:04.418Z,3.47
2023-03-06T13:23:35.201Z,5.40
2023-03-06T13:26:04.610Z,8.27
2023-03-06T13:28:35.752Z,7.75
2023-03-06T13:31:03.961Z,9.15
2023-03-06T13:33:32.902Z,9.82
2023-03-06T13:36:20.258Z,9.20
2023-03-06T13:38:50.540Z,8.30
2023-03-06T13:41:24.780Z,9.70
2023-03-06T13:43:54.547Z,9.93
2023-03-06T13:46:26.224Z,9.70
2023-03-06T13:49:04.794Z,9.40
2023-03-06T13:51:35.705Z,9.65
2023-03-06T13:54:18.186Z,9.43
2023-03-06T13:56:59.663Z,9.93
2023-03-06T13:59:45.149Z,9.57
2023-03-06T14:02:34.370Z,9.85
2023-03-06T14:05:10.869Z,8.50
2023-03-06T14:07:41.602Z,9.35
2023-03-06T14:10:15.591Z,8.48
2023-03-06T14:12:49.538Z,8.80
2023-03-06T14:15:26.349Z,8.05
2023-03-06T14:18:00.457Z,9.85
2023-03-06T14:20:42.308Z,10.70
2023-03-06T14:23:22.764Z,10.40
2023-03-06T14:25:57.909Z,10.25
2023-03-06T14:28:28.080Z,10.30
2023-03-06T14:30:59.492Z,10.68
2023-03-06T14:33:44.808Z,9.80
2023-03-06T14:36:19.873Z,9.93
2023-03-06T14:38:52.743Z,8.85
2023-03-06T14:41:24.919Z,8.80
2023-03-06T14:44:08.925Z,7.30
2023-03-06T14:46:37.399Z,10.00
2023-03-06T14:49:08.670Z,10.30
2023-03-06T14:51:44.831Z,9.13
2023-03-06T14:54:27.940Z,11.68
2023-03-06T14:57:02.430Z,9.45
2023-03-06T14:59:43.368Z,10.40
2023-03-06T15:02:16.791Z,9.57
2023-03-06T15:04:47.929Z,11.25
2023-03-06T15:07:18.996Z,10.32
2023-03-06T15:09:52.854Z,9.77
2023-03-06T15:12:22.651Z,9.40
2023-03-06T15:15:02.743Z,10.55
2023-03-06T15:17:41.521Z,10.00
2023-03-06T15:20:30.219Z,9.50
2023-03-06T15:22:58.861Z,9.13
2023-03-06T15:25:30.023Z,9.55
2023-03-06T15:28:02.842Z,8.23
2023-03-06T15:30:33.343Z,6.28
2023-03-06T15:33:26.214Z,8.70
2023-03-06T15:36:03.888Z,9.80
2023-03-06T15:38:34.900Z,9.30
2023-03-06T15:41:04.190Z,9.60
2023-03-06T15:43:39.383Z,10.98
2023-03-06T15:46:11.642Z,11.27
2023-03-06T15:48:51.757Z,10.85
2023-03-06T15:51:20.213Z,10.38
2023-03-06T15:53:59.775Z,11.55
2023-03-06T15:56:39.198Z,13.40
2023-03-06T15:59:15.186Z,11.48
2023-03-06T16:01:44.024Z,11.93
2023-03-06T16:04:12.385Z,13.35
2023-03-06T16:06:44.776Z,13.98
2023-03-06T16:09:15.518Z,13.82
2023-03-06T16:11:46.736Z,13.70
2023-03-06T16:14:23.733Z,14.60
2023-03-06T16:16:57.506Z,13.43
2023-03-06T16:19:29.069Z,12.65
2023-03-06T16:22:00.065Z,13.07
2023-03-06T16:24:29.228Z,13.50
2023-03-06T16:26:59.603Z,10.95
2023-03-06T16:29:30.074Z,12.98
2023-03-06T16:31:58.827Z,14.52
2023-03-06T16:34:27.318Z,13.70
2023-03-06T16:36:55.595Z,13.70
2023-03-06T16:39:27.466Z,13.50
2023-03-06T16:41:58.492Z,11.55
2023-03-06T16:44:31.548Z,11.95
2023-03-06T16:47:01.593Z,10.88
2023-03-06T16:49:32.166Z,11.27
2023-03-06T16:52:04.561Z,11.65
2023-03-06T16:54:37.089Z,12.68
2023-03-06T16:57:07.812Z,12.30
2023-03-06T16:59:36.859Z,11.10
2023-03-06T17:02:07.592Z,11.38
2023-03-06T17:04:36.309Z,12.73
2023-03-06T17:07:04.923Z,11.43
2023-03-06T17:09:33.628Z,11.93
2023-03-06T17:12:02.321Z,10.90
2023-03-06T17:14:35.016Z,11.20
2023-03-06T17:17:07.330Z,12.20
2023-03-06T17:19:38.465Z,12.05
2023-03-06T17:22:09.057Z,11.63
2023-03-06T17:24:41.576Z,11.00
2023-03-06T17:27:11.139Z,12.27
2023-03-06T17:29:40.989Z,20.42
2023-03-06T17:32:10.178Z,30.23
2023-03-06T17:34:46.474Z,14.80
2023-03-06T17:37:16.277Z,14.38
2023-03-06T17:39:49.770Z,11.25
2023-03-06T17:42:18.595Z,13.90
2023-03-06T17:44:50.877Z,12.23
2023-03-06T17:47:21.897Z,12.68
2023-03-06T17:49:50.490Z,13.13
2023-03-06T17:52:19.983Z,12.25
2023-03-06T17:54:50.597Z,18.85
2023-03-06T17:57:22.187Z,15.38
2023-03-06T17:59:56.899Z,20.23
2023-03-06T18:02:33.756Z,16.85
2023-03-06T18:05:05.151Z,12.13
2023-03-06T18:07:37.594Z,14.77
2023-03-06T18:10:06.503Z,15.32
2023-03-06T18:12:46.071Z,14.02
2023-03-06T18:15:17.757Z,15.07
2023-03-06T18:17:50.612Z,15.75
2023-03-06T18:20:20.050Z,14.27
2023-03-06T18:22:51.960Z,15.98
2023-03-06T18:25:32.245Z,13.90
2023-03-06T18:28:06.111Z,15.05
2023-03-06T18:30:41.284Z,15.18
2023-03-06T18:33:20.708Z,12.27
2023-03-06T18:35:51.289Z,14.77
2023-03-06T18:38:22.169Z,13.25
2023-03-06T18:40:53.196Z,14.15
2023-03-06T18:43:21.724Z,13.52
2023-03-06T18:45:54.936Z,13.75
2023-03-06T18:48:24.764Z,13.30
2023-03-06T18:50:55.266Z,13.70
2023-03-06T18:53:25.785Z,13.68
2023-03-06T18:55:57.145Z,14.15
2023-03-06T18:58:26.607Z,9.80
2023-03-06T19:00:59.909Z,13.98
2023-03-06T19:03:40.719Z,14.10
2023-03-06T19:06:11.668Z,13.60
2023-03-06T19:08:41.485Z,9.38
2023-03-06T19:11:13.239Z,13.85
2023-03-06T19:13:46.647Z,10.23
2023-03-06T19:16:23.130Z,12.98
2023-03-06T19:18:58.736Z,12.43
2023-03-06T19:21:33.702Z,13.32
2023-03-06T19:24:04.885Z,8.55
2023-03-06T19:26:34.991Z,12.18
2023-03-06T19:29:04.538Z,13.27
2023-03-06T19:31:34.065Z,13.85
2023-03-06T19:34:02.601Z,14.85
2023-03-06T19:36:34.585Z,12.20
2023-03-06T19:39:04.764Z,12.77
2023-03-06T19:41:37.861Z,13.95
2023-03-06T19:44:06.421Z,6.38
2023-03-06T19:46:36.328Z,13.00
2023-03-06T19:49:11.657Z,13.63
2023-03-06T19:51:43.096Z,12.80
2023-03-06T19:54:12.668Z,9.65
2023-03-06T19:56:41.536Z,10.48
2023-03-06T19:59:10.990Z,11.07
2023-03-06T20:01:42.228Z,12.43
2023-03-06T20:04:11.791Z,12.52
2023-03-06T20:06:40.207Z,12.40
2023-03-06T20:09:14.905Z,9.93
2023-03-06T20:11:43.834Z,9.52
2023-03-06T20:14:18.382Z,7.68
2023-03-06T20:16:47.055Z,8.45
2023-03-06T20:19:15.758Z,9.98
2023-03-06T20:21:46.368Z,8.77
2023-03-06T20:24:16.674Z,8.30
2023-03-06T20:26:46.591Z,9.55
2023-03-06T20:29:17.407Z,4.57
2023-03-06T20:34:20.080Z,9.93
2023-03-06T20:36:48.956Z,7.00
2023-03-06T20:39:19.171Z,11.45
2023-03-06T20:41:48.611Z,12.43
2023-03-06T20:44:20.171Z,7.43
2023-03-06T20:46:52.053Z,11.32
2023-03-06T20:49:25.070Z,12.68
2023-03-06T20:51:58.838Z,9.63
2023-03-06T20:54:28.359Z,9.52
2023-03-06T20:56:59.388Z,11.23
2023-03-06T20:59:27.794Z,11.13
2023-03-06T21:01:56.168Z,13.52
2023-03-06T21:04:26.956Z,13.18
2023-03-06T21:06:56.127Z,10.07
2023-03-06T21:09:26.670Z,11.38
2023-03-06T21:11:55.414Z,7.47
2023-03-06T21:14:27.180Z,13.25
2023-03-06T21:16:55.373Z,12.77
2023-03-06T21:19:23.839Z,11.18
2023-03-06T21:21:52.039Z,13.75
2023-03-06T21:24:21.481Z,13.77
2023-03-06T21:26:52.021Z,10.57
2023-03-06T21:29:21.642Z,8.70
2023-03-06T21:31:52.865Z,8.18
2023-03-06T21:34:22.078Z,13.65
2023-03-06T21:36:51.093Z,10.63
2023-03-06T21:39:19.736Z,14.02
2023-03-06T21:41:50.491Z,12.85
2023-03-06T21:44:21.261Z,13.15
2023-03-06T21:46:49.608Z,12.80
2023-03-06T21:49:18.237Z,10.25
2023-03-06T21:51:46.918Z,14.65
2023-03-06T21:54:15.215Z,12.05
2023-03-06T21:56:43.505Z,13.40
2023-03-06T21:59:12.136Z,13.15
2023-03-06T22:01:42.610Z,23.00
2023-03-06T22:06:42.532Z,15.35
2023-03-06T22:09:16.030Z,12.55
2023-03-06T22:11:46.905Z,19.13
2023-03-06T22:14:16.079Z,19.10
2023-03-06T22:16:45.406Z,22.23
2023-03-06T22:19:14.496Z,18.80
2023-03-06T22:21:43.969Z,16.85
2023-03-06T22:24:12.421Z,18.98
2023-03-06T22:26:40.852Z,16.58
2023-03-06T22:29:09.401Z,16.98
2023-03-06T22:31:40.368Z,18.42
2023-03-06T22:34:12.048Z,14.60
2023-03-06T22:36:40.662Z,12.45
2023-03-06T22:39:12.367Z,13.75
2023-03-06T22:41:41.468Z,17.42
2023-03-06T22:44:14.909Z,14.70
2023-03-06T22:46:45.076Z,17.17
2023-03-06T22:49:16.811Z,11.82
2023-03-06T22:51:47.098Z,17.40
2023-03-06T22:54:15.810Z,16.95
2023-03-06T22:56:47.061Z,14.43
2023-03-06T22:59:15.530Z,11.32
2023-03-06T23:01:43.968Z,16.05
2023-03-06T23:04:13.965Z,15.88
2023-03-06T23:06:42.894Z,16.77
2023-03-06T23:09:20.682Z,14.93
2023-03-06T23:12:08.981Z,8.70
2023-03-06T23:14:55.881Z,16.40
2023-03-06T23:17:52.301Z,16.17
2023-03-06T23:20:44.866Z,15.05
2023-03-06T23:23:32.182Z,11.93
2023-03-06T23:26:02.810Z,12.35
2023-03-06T23:28:34.745Z,12.93
2023-03-06T23:31:13.426Z,13.55
2023-03-06T23:33:46.466Z,13.38
2023-03-06T23:36:16.519Z,13.60
2023-03-06T23:38:47.804Z,10.05
2023-03-06T23:41:20.104Z,10.65
2023-03-06T23:43:57.789Z,7.25
2023-03-06T23:46:26.520Z,13.35
2023-03-06T23:48:57.063Z,6.60
2023-03-06T23:51:28.005Z,11.82
2023-03-06T23:53:57.544Z,12.60
2023-03-06T23:56:30.658Z,11.43
2023-03-06T23:58:59.291Z,12.07
